Terminal Aerodrome Forecast
Issued by NWS

Home | Current Version | Previous Version | Graphics & Text | Print | Product List | Glossary On
Versions: 1 2 3 4 5 6 7 8 9 10 11 12 13 14 15 16 17 18 19 20
198
FTUS43 KBIS 211128
TAFDIK
TAF
KDIK 211128Z 2112/2212 13016G24KT P6SM BKN009 BKN150
     FM211330 14018G26KT P6SM BKN012
     FM211500 14020G34KT P6SM BKN080
     FM220300 15023G32KT P6SM BKN020
     FM220600 16018G26KT P6SM VCTS BKN020CB OVC040=

USA.gov is the U.S. government's official web portal to all federal, state and local government web resources and services.